sensor_id;sensor_type;location;lat;lon;timestamp;P1;durP1;ratioP1;P2;durP2;ratioP2
68126;SDS011;54931;52.098;21.006;2023-04-30T00:00:33;31.30;;;17.40;;
68126;SDS011;54931;52.098;21.006;2023-04-30T00:03:22;35.60;;;18.70;;
68126;SDS011;54931;52.098;21.006;2023-04-30T00:05:50;30.80;;;17.50;;
68126;SDS011;54931;52.098;21.006;2023-04-30T00:08:18;28.90;;;15.70;;
68126;SDS011;54931;52.098;21.006;2023-04-30T00:10:45;29.00;;;16.40;;
68126;SDS011;54931;52.098;21.006;2023-04-30T00:13:13;28.80;;;16.70;;
68126;SDS011;54931;52.098;21.006;2023-04-30T00:15:41;30.10;;;16.10;;
68126;SDS011;54931;52.098;21.006;2023-04-30T00:18:08;29.70;;;16.20;;
68126;SDS011;54931;52.098;21.006;2023-04-30T00:20:36;35.00;;;17.50;;
68126;SDS011;54931;52.098;21.006;2023-04-30T00:23:03;27.20;;;15.50;;
68126;SDS011;54931;52.098;21.006;2023-04-30T00:25:31;30.30;;;17.50;;
68126;SDS011;54931;52.098;21.006;2023-04-30T00:27:58;33.10;;;18.50;;
68126;SDS011;54931;52.098;21.006;2023-04-30T00:30:26;31.30;;;17.90;;
68126;SDS011;54931;52.098;21.006;2023-04-30T00:32:53;28.70;;;16.10;;
68126;SDS011;54931;52.098;21.006;2023-04-30T00:35:21;27.10;;;16.40;;
68126;SDS011;54931;52.098;21.006;2023-04-30T00:37:48;30.30;;;16.80;;
68126;SDS011;54931;52.098;21.006;2023-04-30T00:40:16;31.50;;;17.10;;
68126;SDS011;54931;52.098;21.006;2023-04-30T00:42:44;30.80;;;17.10;;
68126;SDS011;54931;52.098;21.006;2023-04-30T00:45:12;34.10;;;18.00;;
68126;SDS011;54931;52.098;21.006;2023-04-30T00:47:40;28.80;;;17.60;;
68126;SDS011;54931;52.098;21.006;2023-04-30T00:50:09;34.80;;;19.20;;
68126;SDS011;54931;52.098;21.006;2023-04-30T00:52:37;32.00;;;18.50;;
68126;SDS011;54931;52.098;21.006;2023-04-30T00:55:05;33.50;;;18.70;;
68126;SDS011;54931;52.098;21.006;2023-04-30T00:57:34;36.00;;;20.90;;
68126;SDS011;54931;52.098;21.006;2023-04-30T01:00:03;40.80;;;19.90;;
68126;SDS011;54931;52.098;21.006;2023-04-30T01:02:33;34.40;;;19.50;;
68126;SDS011;54931;52.098;21.006;2023-04-30T01:05:02;31.30;;;19.60;;
68126;SDS011;54931;52.098;21.006;2023-04-30T01:07:32;34.00;;;19.80;;
68126;SDS011;54931;52.098;21.006;2023-04-30T01:10:02;34.30;;;19.30;;
68126;SDS011;54931;52.098;21.006;2023-04-30T01:12:49;34.70;;;20.60;;
68126;SDS011;54931;52.098;21.006;2023-04-30T01:15:36;31.60;;;19.10;;
68126;SDS011;54931;52.098;21.006;2023-04-30T01:18:33;33.70;;;19.30;;
68126;SDS011;54931;52.098;21.006;2023-04-30T01:21:08;34.70;;;18.10;;
68126;SDS011;54931;52.098;21.006;2023-04-30T01:27:14;36.90;;;21.00;;
68126;SDS011;54931;52.098;21.006;2023-04-30T01:29:49;33.60;;;19.60;;
68126;SDS011;54931;52.098;21.006;2023-04-30T01:32:19;31.60;;;19.40;;
68126;SDS011;54931;52.098;21.006;2023-04-30T01:34:46;35.90;;;19.20;;
68126;SDS011;54931;52.098;21.006;2023-04-30T01:40:28;31.70;;;18.00;;
68126;SDS011;54931;52.098;21.006;2023-04-30T01:46:27;29.80;;;17.80;;
68126;SDS011;54931;52.098;21.006;2023-04-30T01:49:50;30.80;;;17.70;;
68126;SDS011;54931;52.098;21.006;2023-04-30T01:55:17;32.30;;;17.90;;
68126;SDS011;54931;52.098;21.006;2023-04-30T01:57:59;29.60;;;18.00;;
68126;SDS011;54931;52.098;21.006;2023-04-30T02:00:29;32.10;;;17.90;;
68126;SDS011;54931;52.098;21.006;2023-04-30T02:02:58;32.00;;;18.60;;
68126;SDS011;54931;52.098;21.006;2023-04-30T02:05:25;33.10;;;19.30;;
68126;SDS011;54931;52.098;21.006;2023-04-30T02:07:53;32.80;;;18.60;;
68126;SDS011;54931;52.098;21.006;2023-04-30T02:10:23;33.40;;;19.20;;
68126;SDS011;54931;52.098;21.006;2023-04-30T02:12:52;31.60;;;18.30;;
68126;SDS011;54931;52.098;21.006;2023-04-30T02:15:20;34.80;;;20.10;;
68126;SDS011;54931;52.098;21.006;2023-04-30T02:17:47;29.90;;;18.70;;
68126;SDS011;54931;52.098;21.006;2023-04-30T02:20:15;33.90;;;18.70;;
68126;SDS011;54931;52.098;21.006;2023-04-30T02:22:43;30.90;;;18.70;;
68126;SDS011;54931;52.098;21.006;2023-04-30T02:25:11;34.00;;;19.70;;
68126;SDS011;54931;52.098;21.006;2023-04-30T02:27:39;37.20;;;19.80;;
68126;SDS011;54931;52.098;21.006;2023-04-30T02:30:07;32.70;;;19.40;;
68126;SDS011;54931;52.098;21.006;2023-04-30T02:32:35;37.90;;;21.50;;
68126;SDS011;54931;52.098;21.006;2023-04-30T02:35:03;33.80;;;20.30;;
68126;SDS011;54931;52.098;21.006;2023-04-30T02:37:31;37.00;;;20.90;;
68126;SDS011;54931;52.098;21.006;2023-04-30T02:39:58;35.00;;;20.10;;
68126;SDS011;54931;52.098;21.006;2023-04-30T02:42:26;37.90;;;21.80;;
68126;SDS011;54931;52.098;21.006;2023-04-30T02:44:53;38.80;;;21.10;;
68126;SDS011;54931;52.098;21.006;2023-04-30T02:47:21;38.80;;;22.30;;
68126;SDS011;54931;52.098;21.006;2023-04-30T02:49:48;37.90;;;21.90;;
68126;SDS011;54931;52.098;21.006;2023-04-30T02:52:16;37.70;;;22.90;;
68126;SDS011;54931;52.098;21.006;2023-04-30T02:54:44;41.00;;;22.30;;
68126;SDS011;54931;52.098;21.006;2023-04-30T02:57:11;37.70;;;22.40;;
68126;SDS011;54931;52.098;21.006;2023-04-30T02:59:39;35.50;;;21.20;;
68126;SDS011;54931;52.098;21.006;2023-04-30T03:02:06;38.90;;;21.40;;
68126;SDS011;54931;52.098;21.006;2023-04-30T03:04:34;37.30;;;21.40;;
68126;SDS011;54931;52.098;21.006;2023-04-30T03:07:02;34.40;;;19.70;;
68126;SDS011;54931;52.098;21.006;2023-04-30T03:09:30;34.00;;;19.10;;
68126;SDS011;54931;52.098;21.006;2023-04-30T03:11:58;33.10;;;18.80;;
68126;SDS011;54931;52.098;21.006;2023-04-30T03:14:25;33.20;;;18.40;;
68126;SDS011;54931;52.098;21.006;2023-04-30T03:16:53;32.10;;;18.60;;
68126;SDS011;54931;52.098;21.006;2023-04-30T03:19:20;30.20;;;17.60;;
68126;SDS011;54931;52.098;21.006;2023-04-30T03:21:51;36.50;;;20.50;;
68126;SDS011;54931;52.098;21.006;2023-04-30T03:24:19;27.60;;;17.10;;
68126;SDS011;54931;52.098;21.006;2023-04-30T03:26:46;31.20;;;18.20;;
68126;SDS011;54931;52.098;21.006;2023-04-30T03:29:14;32.00;;;18.40;;
68126;SDS011;54931;52.098;21.006;2023-04-30T03:31:42;32.00;;;18.30;;
68126;SDS011;54931;52.098;21.006;2023-04-30T03:34:09;28.80;;;17.70;;
68126;SDS011;54931;52.098;21.006;2023-04-30T03:36:37;28.60;;;18.30;;
68126;SDS011;54931;52.098;21.006;2023-04-30T03:39:05;29.20;;;18.30;;
68126;SDS011;54931;52.098;21.006;2023-04-30T03:41:34;32.80;;;18.60;;
68126;SDS011;54931;52.098;21.006;2023-04-30T03:44:02;31.30;;;19.00;;
68126;SDS011;54931;52.098;21.006;2023-04-30T03:46:32;33.40;;;19.30;;
68126;SDS011;54931;52.098;21.006;2023-04-30T03:49:00;30.00;;;18.70;;
68126;SDS011;54931;52.098;21.006;2023-04-30T03:51:27;32.80;;;17.90;;
68126;SDS011;54931;52.098;21.006;2023-04-30T03:53:55;35.20;;;17.80;;
68126;SDS011;54931;52.098;21.006;2023-04-30T03:56:22;32.20;;;17.00;;
68126;SDS011;54931;52.098;21.006;2023-04-30T03:58:51;31.80;;;18.30;;
68126;SDS011;54931;52.098;21.006;2023-04-30T04:01:19;33.50;;;18.20;;
68126;SDS011;54931;52.098;21.006;2023-04-30T04:03:47;30.20;;;18.30;;
68126;SDS011;54931;52.098;21.006;2023-04-30T04:06:14;28.60;;;18.40;;
68126;SDS011;54931;52.098;21.006;2023-04-30T04:08:42;26.80;;;17.40;;
68126;SDS011;54931;52.098;21.006;2023-04-30T04:11:10;28.20;;;16.80;;
68126;SDS011;54931;52.098;21.006;2023-04-30T04:13:38;30.10;;;17.60;;
68126;SDS011;54931;52.098;21.006;2023-04-30T04:16:06;29.00;;;17.50;;
68126;SDS011;54931;52.098;21.006;2023-04-30T04:18:34;30.50;;;16.90;;
68126;SDS011;54931;52.098;21.006;2023-04-30T04:21:02;28.20;;;16.20;;
68126;SDS011;54931;52.098;21.006;2023-04-30T04:23:30;25.50;;;15.80;;
68126;SDS011;54931;52.098;21.006;2023-04-30T04:25:57;26.10;;;14.90;;
68126;SDS011;54931;52.098;21.006;2023-04-30T04:28:26;22.00;;;12.00;;
68126;SDS011;54931;52.098;21.006;2023-04-30T04:30:54;19.20;;;11.70;;
68126;SDS011;54931;52.098;21.006;2023-04-30T04:33:22;19.10;;;10.80;;
68126;SDS011;54931;52.098;21.006;2023-04-30T04:35:50;19.50;;;9.80;;
68126;SDS011;54931;52.098;21.006;2023-04-30T04:38:18;18.70;;;9.80;;
68126;SDS011;54931;52.098;21.006;2023-04-30T04:40:52;17.10;;;10.10;;
68126;SDS011;54931;52.098;21.006;2023-04-30T04:43:20;17.10;;;10.60;;
68126;SDS011;54931;52.098;21.006;2023-04-30T04:45:48;13.20;;;8.10;;
68126;SDS011;54931;52.098;21.006;2023-04-30T04:48:15;16.80;;;8.10;;
68126;SDS011;54931;52.098;21.006;2023-04-30T04:50:43;17.90;;;8.10;;
68126;SDS011;54931;52.098;21.006;2023-04-30T04:53:11;12.10;;;7.90;;
68126;SDS011;54931;52.098;21.006;2023-04-30T04:55:40;18.00;;;7.80;;
68126;SDS011;54931;52.098;21.006;2023-04-30T04:58:07;14.20;;;8.00;;
68126;SDS011;54931;52.098;21.006;2023-04-30T05:00:35;13.50;;;7.50;;
68126;SDS011;54931;52.098;21.006;2023-04-30T05:03:02;15.40;;;7.40;;
68126;SDS011;54931;52.098;21.006;2023-04-30T05:05:30;14.40;;;7.70;;
68126;SDS011;54931;52.098;21.006;2023-04-30T05:07:58;15.60;;;8.20;;
68126;SDS011;54931;52.098;21.006;2023-04-30T05:10:25;16.70;;;8.10;;
68126;SDS011;54931;52.098;21.006;2023-04-30T05:12:53;17.20;;;9.00;;
68126;SDS011;54931;52.098;21.006;2023-04-30T05:15:20;15.10;;;7.80;;
68126;SDS011;54931;52.098;21.006;2023-04-30T05:17:48;15.00;;;9.00;;
68126;SDS011;54931;52.098;21.006;2023-04-30T05:20:16;16.20;;;8.50;;
68126;SDS011;54931;52.098;21.006;2023-04-30T05:22:43;17.00;;;9.10;;
68126;SDS011;54931;52.098;21.006;2023-04-30T05:25:11;15.60;;;9.30;;
68126;SDS011;54931;52.098;21.006;2023-04-30T05:27:39;20.90;;;10.00;;
68126;SDS011;54931;52.098;21.006;2023-04-30T05:30:07;19.00;;;10.40;;
68126;SDS011;54931;52.098;21.006;2023-04-30T05:32:35;18.90;;;10.70;;
68126;SDS011;54931;52.098;21.006;2023-04-30T05:35:03;19.30;;;11.00;;
68126;SDS011;54931;52.098;21.006;2023-04-30T05:37:31;16.50;;;10.30;;
68126;SDS011;54931;52.098;21.006;2023-04-30T05:39:59;15.80;;;10.10;;
68126;SDS011;54931;52.098;21.006;2023-04-30T05:42:26;16.80;;;10.00;;
68126;SDS011;54931;52.098;21.006;2023-04-30T05:44:54;16.50;;;10.00;;
68126;SDS011;54931;52.098;21.006;2023-04-30T05:47:21;17.50;;;9.80;;
68126;SDS011;54931;52.098;21.006;2023-04-30T05:49:49;17.60;;;10.30;;
68126;SDS011;54931;52.098;21.006;2023-04-30T05:52:16;18.30;;;10.70;;
68126;SDS011;54931;52.098;21.006;2023-04-30T05:54:46;20.90;;;10.90;;
68126;SDS011;54931;52.098;21.006;2023-04-30T05:57:15;21.20;;;10.30;;
68126;SDS011;54931;52.098;21.006;2023-04-30T05:59:42;22.40;;;11.30;;
68126;SDS011;54931;52.098;21.006;2023-04-30T06:02:10;23.20;;;12.50;;
68126;SDS011;54931;52.098;21.006;2023-04-30T06:04:37;21.80;;;12.40;;
68126;SDS011;54931;52.098;21.006;2023-04-30T06:07:05;18.80;;;11.60;;
68126;SDS011;54931;52.098;21.006;2023-04-30T06:09:33;21.90;;;11.50;;
68126;SDS011;54931;52.098;21.006;2023-04-30T06:12:00;18.00;;;11.40;;
68126;SDS011;54931;52.098;21.006;2023-04-30T06:14:29;23.00;;;11.80;;
68126;SDS011;54931;52.098;21.006;2023-04-30T06:16:56;23.20;;;13.00;;
68126;SDS011;54931;52.098;21.006;2023-04-30T06:19:24;22.20;;;13.10;;
68126;SDS011;54931;52.098;21.006;2023-04-30T06:21:51;22.10;;;12.70;;
68126;SDS011;54931;52.098;21.006;2023-04-30T06:24:19;23.00;;;13.10;;
68126;SDS011;54931;52.098;21.006;2023-04-30T06:26:46;22.70;;;13.10;;
68126;SDS011;54931;52.098;21.006;2023-04-30T06:29:14;22.00;;;13.20;;
68126;SDS011;54931;52.098;21.006;2023-04-30T06:31:41;22.20;;;13.80;;
68126;SDS011;54931;52.098;21.006;2023-04-30T06:34:10;23.70;;;14.40;;
68126;SDS011;54931;52.098;21.006;2023-04-30T06:36:37;23.70;;;14.70;;
68126;SDS011;54931;52.098;21.006;2023-04-30T06:39:05;23.20;;;13.90;;
68126;SDS011;54931;52.098;21.006;2023-04-30T06:41:33;23.70;;;14.30;;
68126;SDS011;54931;52.098;21.006;2023-04-30T06:44:00;25.30;;;15.60;;
68126;SDS011;54931;52.098;21.006;2023-04-30T06:46:28;26.10;;;16.50;;
68126;SDS011;54931;52.098;21.006;2023-04-30T06:48:55;28.80;;;18.10;;
68126;SDS011;54931;52.098;21.006;2023-04-30T06:51:23;26.80;;;17.20;;
68126;SDS011;54931;52.098;21.006;2023-04-30T06:53:51;27.70;;;16.60;;
68126;SDS011;54931;52.098;21.006;2023-04-30T06:56:19;31.50;;;19.00;;
68126;SDS011;54931;52.098;21.006;2023-04-30T06:58:48;28.00;;;16.90;;
68126;SDS011;54931;52.098;21.006;2023-04-30T07:01:16;26.00;;;15.70;;
68126;SDS011;54931;52.098;21.006;2023-04-30T07:03:44;28.50;;;16.70;;
68126;SDS011;54931;52.098;21.006;2023-04-30T07:06:11;27.60;;;15.30;;
68126;SDS011;54931;52.098;21.006;2023-04-30T07:08:39;25.10;;;13.60;;
68126;SDS011;54931;52.098;21.006;2023-04-30T07:11:07;22.20;;;12.40;;
68126;SDS011;54931;52.098;21.006;2023-04-30T07:13:35;21.90;;;11.90;;
68126;SDS011;54931;52.098;21.006;2023-04-30T07:16:03;20.20;;;10.40;;
68126;SDS011;54931;52.098;21.006;2023-04-30T07:18:31;16.90;;;10.40;;
68126;SDS011;54931;52.098;21.006;2023-04-30T07:20:59;16.00;;;9.80;;
68126;SDS011;54931;52.098;21.006;2023-04-30T07:23:27;15.40;;;8.20;;
68126;SDS011;54931;52.098;21.006;2023-04-30T07:25:54;12.40;;;7.30;;
68126;SDS011;54931;52.098;21.006;2023-04-30T07:28:22;12.80;;;6.10;;
68126;SDS011;54931;52.098;21.006;2023-04-30T07:30:49;11.20;;;6.70;;
68126;SDS011;54931;52.098;21.006;2023-04-30T07:33:17;12.20;;;6.80;;
68126;SDS011;54931;52.098;21.006;2023-04-30T07:35:45;11.40;;;6.40;;
68126;SDS011;54931;52.098;21.006;2023-04-30T07:38:12;12.80;;;6.10;;
68126;SDS011;54931;52.098;21.006;2023-04-30T07:40:39;14.50;;;6.30;;
68126;SDS011;54931;52.098;21.006;2023-04-30T07:43:07;9.90;;;5.50;;
68126;SDS011;54931;52.098;21.006;2023-04-30T07:45:35;10.40;;;5.30;;
68126;SDS011;54931;52.098;21.006;2023-04-30T07:48:03;10.20;;;5.40;;
68126;SDS011;54931;52.098;21.006;2023-04-30T07:50:31;13.00;;;5.80;;
68126;SDS011;54931;52.098;21.006;2023-04-30T07:53:00;10.50;;;5.30;;
68126;SDS011;54931;52.098;21.006;2023-04-30T07:55:28;10.30;;;5.70;;
68126;SDS011;54931;52.098;21.006;2023-04-30T07:57:56;10.80;;;5.70;;
68126;SDS011;54931;52.098;21.006;2023-04-30T08:00:23;10.10;;;5.80;;
68126;SDS011;54931;52.098;21.006;2023-04-30T08:02:52;10.90;;;5.40;;
68126;SDS011;54931;52.098;21.006;2023-04-30T08:05:20;10.10;;;4.90;;
68126;SDS011;54931;52.098;21.006;2023-04-30T08:07:47;9.80;;;4.90;;
68126;SDS011;54931;52.098;21.006;2023-04-30T08:10:15;10.30;;;5.40;;
68126;SDS011;54931;52.098;21.006;2023-04-30T08:12:43;9.80;;;4.80;;
68126;SDS011;54931;52.098;21.006;2023-04-30T08:15:11;7.90;;;4.50;;
68126;SDS011;54931;52.098;21.006;2023-04-30T08:17:39;9.30;;;4.50;;
68126;SDS011;54931;52.098;21.006;2023-04-30T08:20:08;8.50;;;4.90;;
68126;SDS011;54931;52.098;21.006;2023-04-30T08:22:36;13.00;;;4.80;;
68126;SDS011;54931;52.098;21.006;2023-04-30T08:25:03;8.30;;;4.10;;
68126;SDS011;54931;52.098;21.006;2023-04-30T08:27:31;8.30;;;3.80;;
68126;SDS011;54931;52.098;21.006;2023-04-30T08:29:59;9.10;;;4.60;;
68126;SDS011;54931;52.098;21.006;2023-04-30T08:32:27;15.10;;;4.20;;
68126;SDS011;54931;52.098;21.006;2023-04-30T08:34:55;6.00;;;3.60;;
68126;SDS011;54931;52.098;21.006;2023-04-30T08:37:23;8.10;;;3.90;;
68126;SDS011;54931;52.098;21.006;2023-04-30T08:39:50;10.40;;;3.70;;
68126;SDS011;54931;52.098;21.006;2023-04-30T08:42:20;6.90;;;3.40;;
68126;SDS011;54931;52.098;21.006;2023-04-30T08:44:52;6.90;;;3.50;;
68126;SDS011;54931;52.098;21.006;2023-04-30T08:47:19;9.00;;;3.30;;
68126;SDS011;54931;52.098;21.006;2023-04-30T08:49:48;10.80;;;4.10;;
68126;SDS011;54931;52.098;21.006;2023-04-30T08:52:17;7.00;;;3.70;;
68126;SDS011;54931;52.098;21.006;2023-04-30T08:54:46;6.10;;;3.20;;
68126;SDS011;54931;52.098;21.006;2023-04-30T08:57:17;7.20;;;3.60;;
68126;SDS011;54931;52.098;21.006;2023-04-30T08:59:45;8.40;;;3.70;;
68126;SDS011;54931;52.098;21.006;2023-04-30T09:02:15;5.70;;;3.30;;
68126;SDS011;54931;52.098;21.006;2023-04-30T09:04:43;8.00;;;3.30;;
68126;SDS011;54931;52.098;21.006;2023-04-30T09:07:12;5.90;;;3.20;;
68126;SDS011;54931;52.098;21.006;2023-04-30T09:09:41;4.90;;;3.10;;
68126;SDS011;54931;52.098;21.006;2023-04-30T09:12:16;6.10;;;2.70;;
68126;SDS011;54931;52.098;21.006;2023-04-30T09:17:31;6.20;;;2.70;;
68126;SDS011;54931;52.098;21.006;2023-04-30T09:22:40;7.10;;;2.50;;
68126;SDS011;54931;52.098;21.006;2023-04-30T09:25:09;6.70;;;2.50;;
68126;SDS011;54931;52.098;21.006;2023-04-30T09:27:37;6.00;;;2.40;;
68126;SDS011;54931;52.098;21.006;2023-04-30T09:30:05;7.90;;;2.40;;
68126;SDS011;54931;52.098;21.006;2023-04-30T09:32:34;6.30;;;2.40;;
68126;SDS011;54931;52.098;21.006;2023-04-30T09:35:02;4.80;;;2.10;;
68126;SDS011;54931;52.098;21.006;2023-04-30T09:37:38;4.00;;;2.20;;
68126;SDS011;54931;52.098;21.006;2023-04-30T09:40:07;5.90;;;2.20;;
68126;SDS011;54931;52.098;21.006;2023-04-30T09:42:35;6.40;;;2.20;;
68126;SDS011;54931;52.098;21.006;2023-04-30T09:45:04;7.40;;;2.60;;
68126;SDS011;54931;52.098;21.006;2023-04-30T09:47:32;3.80;;;2.40;;
68126;SDS011;54931;52.098;21.006;2023-04-30T09:49:59;5.10;;;2.50;;
68126;SDS011;54931;52.098;21.006;2023-04-30T09:52:27;4.70;;;2.40;;
68126;SDS011;54931;52.098;21.006;2023-04-30T09:54:54;4.70;;;2.10;;
68126;SDS011;54931;52.098;21.006;2023-04-30T09:57:23;3.50;;;2.20;;
68126;SDS011;54931;52.098;21.006;2023-04-30T09:59:51;3.60;;;1.90;;
68126;SDS011;54931;52.098;21.006;2023-04-30T10:02:19;5.20;;;2.20;;
68126;SDS011;54931;52.098;21.006;2023-04-30T10:04:54;5.10;;;2.40;;
68126;SDS011;54931;52.098;21.006;2023-04-30T10:07:28;5.20;;;2.10;;
68126;SDS011;54931;52.098;21.006;2023-04-30T10:10:07;4.90;;;2.50;;
68126;SDS011;54931;52.098;21.006;2023-04-30T10:15:19;5.30;;;2.20;;
68126;SDS011;54931;52.098;21.006;2023-04-30T10:17:58;5.30;;;2.20;;
68126;SDS011;54931;52.098;21.006;2023-04-30T10:20:34;4.80;;;2.50;;
68126;SDS011;54931;52.098;21.006;2023-04-30T10:23:03;5.50;;;2.40;;
68126;SDS011;54931;52.098;21.006;2023-04-30T10:25:33;9.10;;;2.40;;
68126;SDS011;54931;52.098;21.006;2023-04-30T10:28:01;6.70;;;2.70;;
68126;SDS011;54931;52.098;21.006;2023-04-30T10:30:29;5.30;;;2.50;;
68126;SDS011;54931;52.098;21.006;2023-04-30T10:33:31;4.10;;;2.40;;
68126;SDS011;54931;52.098;21.006;2023-04-30T10:36:12;5.00;;;2.40;;
68126;SDS011;54931;52.098;21.006;2023-04-30T10:41:11;5.70;;;2.80;;
68126;SDS011;54931;52.098;21.006;2023-04-30T10:43:39;5.50;;;2.30;;
68126;SDS011;54931;52.098;21.006;2023-04-30T10:46:07;4.90;;;2.10;;
68126;SDS011;54931;52.098;21.006;2023-04-30T10:48:35;4.90;;;2.10;;
68126;SDS011;54931;52.098;21.006;2023-04-30T10:51:03;2.70;;;1.80;;
68126;SDS011;54931;52.098;21.006;2023-04-30T10:53:31;4.40;;;2.00;;
68126;SDS011;54931;52.098;21.006;2023-04-30T10:56:01;7.40;;;2.10;;
68126;SDS011;54931;52.098;21.006;2023-04-30T10:58:38;5.20;;;1.90;;
68126;SDS011;54931;52.098;21.006;2023-04-30T11:01:11;4.80;;;2.00;;
68126;SDS011;54931;52.098;21.006;2023-04-30T11:04:27;4.60;;;2.30;;
68126;SDS011;54931;52.098;21.006;2023-04-30T11:07:00;4.40;;;1.60;;
68126;SDS011;54931;52.098;21.006;2023-04-30T11:09:39;4.80;;;2.10;;
68126;SDS011;54931;52.098;21.006;2023-04-30T11:12:25;5.30;;;2.00;;
68126;SDS011;54931;52.098;21.006;2023-04-30T11:15:05;4.90;;;1.90;;
68126;SDS011;54931;52.098;21.006;2023-04-30T11:17:38;5.00;;;2.00;;
68126;SDS011;54931;52.098;21.006;2023-04-30T11:20:11;3.70;;;1.60;;
68126;SDS011;54931;52.098;21.006;2023-04-30T11:22:40;5.50;;;2.00;;
68126;SDS011;54931;52.098;21.006;2023-04-30T11:25:09;5.90;;;2.00;;
68126;SDS011;54931;52.098;21.006;2023-04-30T11:27:43;5.00;;;2.10;;
68126;SDS011;54931;52.098;21.006;2023-04-30T11:30:14;4.60;;;2.10;;
68126;SDS011;54931;52.098;21.006;2023-04-30T11:32:45;4.30;;;2.20;;
68126;SDS011;54931;52.098;21.006;2023-04-30T11:35:17;4.20;;;1.70;;
68126;SDS011;54931;52.098;21.006;2023-04-30T11:37:47;7.30;;;2.00;;
68126;SDS011;54931;52.098;21.006;2023-04-30T11:40:15;7.60;;;2.20;;
68126;SDS011;54931;52.098;21.006;2023-04-30T11:42:43;4.70;;;2.00;;
68126;SDS011;54931;52.098;21.006;2023-04-30T11:45:12;3.20;;;1.90;;
68126;SDS011;54931;52.098;21.006;2023-04-30T11:47:50;3.60;;;1.90;;
68126;SDS011;54931;52.098;21.006;2023-04-30T11:50:25;5.30;;;2.00;;
68126;SDS011;54931;52.098;21.006;2023-04-30T11:52:59;3.70;;;2.00;;
68126;SDS011;54931;52.098;21.006;2023-04-30T11:55:31;4.20;;;2.00;;
68126;SDS011;54931;52.098;21.006;2023-04-30T11:57:58;5.10;;;1.70;;
68126;SDS011;54931;52.098;21.006;2023-04-30T12:00:28;8.80;;;2.10;;
68126;SDS011;54931;52.098;21.006;2023-04-30T12:02:59;4.50;;;1.90;;
68126;SDS011;54931;52.098;21.006;2023-04-30T12:05:29;5.70;;;1.90;;
68126;SDS011;54931;52.098;21.006;2023-04-30T12:08:03;6.60;;;2.40;;
68126;SDS011;54931;52.098;21.006;2023-04-30T12:10:35;4.90;;;2.10;;
68126;SDS011;54931;52.098;21.006;2023-04-30T12:13:03;3.60;;;1.90;;
68126;SDS011;54931;52.098;21.006;2023-04-30T12:15:30;8.10;;;2.30;;
68126;SDS011;54931;52.098;21.006;2023-04-30T12:18:10;4.30;;;2.10;;
68126;SDS011;54931;52.098;21.006;2023-04-30T12:20:40;4.20;;;2.00;;
68126;SDS011;54931;52.098;21.006;2023-04-30T12:23:08;5.30;;;2.00;;
68126;SDS011;54931;52.098;21.006;2023-04-30T12:25:40;3.30;;;2.00;;
68126;SDS011;54931;52.098;21.006;2023-04-30T12:28:11;4.60;;;1.90;;
68126;SDS011;54931;52.098;21.006;2023-04-30T12:30:41;4.60;;;2.80;;
68126;SDS011;54931;52.098;21.006;2023-04-30T12:33:09;8.30;;;5.50;;
68126;SDS011;54931;52.098;21.006;2023-04-30T12:35:41;4.70;;;2.30;;
68126;SDS011;54931;52.098;21.006;2023-04-30T12:38:12;7.30;;;2.60;;
68126;SDS011;54931;52.098;21.006;2023-04-30T12:40:46;5.50;;;1.90;;
68126;SDS011;54931;52.098;21.006;2023-04-30T12:43:17;6.20;;;2.30;;
68126;SDS011;54931;52.098;21.006;2023-04-30T12:45:53;10.20;;;5.70;;
68126;SDS011;54931;52.098;21.006;2023-04-30T12:50:55;5.90;;;1.90;;
68126;SDS011;54931;52.098;21.006;2023-04-30T12:53:27;4.40;;;2.00;;
68126;SDS011;54931;52.098;21.006;2023-04-30T12:56:12;7.70;;;4.50;;
68126;SDS011;54931;52.098;21.006;2023-04-30T12:58:43;3.90;;;2.00;;
68126;SDS011;54931;52.098;21.006;2023-04-30T13:01:16;6.50;;;3.80;;
68126;SDS011;54931;52.098;21.006;2023-04-30T13:03:46;3.90;;;2.00;;
68126;SDS011;54931;52.098;21.006;2023-04-30T13:06:14;8.60;;;4.90;;
68126;SDS011;54931;52.098;21.006;2023-04-30T13:08:43;6.20;;;2.00;;
68126;SDS011;54931;52.098;21.006;2023-04-30T13:11:11;5.40;;;1.90;;
68126;SDS011;54931;52.098;21.006;2023-04-30T13:13:39;6.80;;;2.90;;
68126;SDS011;54931;52.098;21.006;2023-04-30T13:16:06;6.00;;;2.60;;
68126;SDS011;54931;52.098;21.006;2023-04-30T13:18:34;5.00;;;2.20;;
68126;SDS011;54931;52.098;21.006;2023-04-30T13:21:03;42.30;;;26.80;;
68126;SDS011;54931;52.098;21.006;2023-04-30T13:23:30;10.10;;;4.80;;
68126;SDS011;54931;52.098;21.006;2023-04-30T13:25:58;37.10;;;20.60;;
68126;SDS011;54931;52.098;21.006;2023-04-30T13:28:25;35.60;;;18.90;;
68126;SDS011;54931;52.098;21.006;2023-04-30T13:30:52;10.20;;;7.00;;
68126;SDS011;54931;52.098;21.006;2023-04-30T13:33:20;10.70;;;7.60;;
68126;SDS011;54931;52.098;21.006;2023-04-30T13:35:48;5.20;;;3.10;;
68126;SDS011;54931;52.098;21.006;2023-04-30T13:38:16;16.10;;;10.90;;
68126;SDS011;54931;52.098;21.006;2023-04-30T13:40:44;11.40;;;5.50;;
68126;SDS011;54931;52.098;21.006;2023-04-30T13:43:11;9.90;;;6.30;;
68126;SDS011;54931;52.098;21.006;2023-04-30T13:45:39;4.50;;;3.10;;
68126;SDS011;54931;52.098;21.006;2023-04-30T13:48:07;5.50;;;2.60;;
68126;SDS011;54931;52.098;21.006;2023-04-30T13:50:34;4.40;;;1.90;;
68126;SDS011;54931;52.098;21.006;2023-04-30T13:53:02;6.90;;;3.20;;
68126;SDS011;54931;52.098;21.006;2023-04-30T13:55:30;3.50;;;1.80;;
68126;SDS011;54931;52.098;21.006;2023-04-30T13:57:59;9.10;;;4.90;;
68126;SDS011;54931;52.098;21.006;2023-04-30T14:00:27;7.30;;;4.20;;
68126;SDS011;54931;52.098;21.006;2023-04-30T14:02:54;3.70;;;2.10;;
68126;SDS011;54931;52.098;21.006;2023-04-30T14:05:21;5.90;;;2.40;;
68126;SDS011;54931;52.098;21.006;2023-04-30T14:07:50;5.20;;;3.10;;
68126;SDS011;54931;52.098;21.006;2023-04-30T14:10:17;6.50;;;3.70;;
68126;SDS011;54931;52.098;21.006;2023-04-30T14:12:45;4.70;;;2.50;;
68126;SDS011;54931;52.098;21.006;2023-04-30T14:15:14;11.50;;;6.60;;
68126;SDS011;54931;52.098;21.006;2023-04-30T14:17:42;46.00;;;29.50;;
68126;SDS011;54931;52.098;21.006;2023-04-30T14:20:10;5.00;;;2.60;;
68126;SDS011;54931;52.098;21.006;2023-04-30T14:22:38;6.90;;;2.20;;
68126;SDS011;54931;52.098;21.006;2023-04-30T14:25:07;7.30;;;2.40;;
68126;SDS011;54931;52.098;21.006;2023-04-30T14:27:36;47.30;;;19.10;;
68126;SDS011;54931;52.098;21.006;2023-04-30T14:30:04;12.40;;;5.80;;
68126;SDS011;54931;52.098;21.006;2023-04-30T14:32:32;11.30;;;5.00;;
68126;SDS011;54931;52.098;21.006;2023-04-30T14:35:00;8.40;;;3.20;;
68126;SDS011;54931;52.098;21.006;2023-04-30T14:37:28;15.30;;;7.20;;
68126;SDS011;54931;52.098;21.006;2023-04-30T14:39:56;9.20;;;4.00;;
68126;SDS011;54931;52.098;21.006;2023-04-30T14:42:25;6.90;;;2.70;;
68126;SDS011;54931;52.098;21.006;2023-04-30T14:44:52;14.30;;;6.60;;
68126;SDS011;54931;52.098;21.006;2023-04-30T14:47:20;7.20;;;4.40;;
68126;SDS011;54931;52.098;21.006;2023-04-30T14:49:48;7.50;;;5.20;;
68126;SDS011;54931;52.098;21.006;2023-04-30T14:52:18;5.70;;;3.40;;
68126;SDS011;54931;52.098;21.006;2023-04-30T14:54:46;4.40;;;2.10;;
68126;SDS011;54931;52.098;21.006;2023-04-30T14:57:14;4.20;;;2.60;;
68126;SDS011;54931;52.098;21.006;2023-04-30T14:59:41;5.10;;;2.50;;